Aviation Digital Data Service (ADDS)

Output produced by METARs form (0503 UTC 27 July 2017)
found at http://www.aviationweather.gov/adds/metars/
 
KDLH 270455Z 32004KT 10SM CLR 18/15 A3005 RMK AO2 SLP171 T01780150